sensor_id;sensor_type;location;lat;lon;timestamp;pressure;altitude;pressure_sealevel;temperature;humidity
23679;BME280;12016;51.668;6.874;2023-02-21T00:02:39;101822.00;;;9.44;82.15
23679;BME280;12016;51.668;6.874;2023-02-21T00:09:00;101665.56;;;8.48;81.96
23679;BME280;12016;51.668;6.874;2023-02-21T00:15:20;101799.19;;;9.36;82.34
23679;BME280;12016;51.668;6.874;2023-02-21T00:21:42;101799.69;;;9.43;81.55
23679;BME280;12016;51.668;6.874;2023-02-21T00:28:02;101791.34;;;9.45;81.99
23679;BME280;12016;51.668;6.874;2023-02-21T00:34:23;101805.91;;;9.39;82.22
23679;BME280;12016;51.668;6.874;2023-02-21T00:40:43;101797.63;;;9.30;82.35
23679;BME280;12016;51.668;6.874;2023-02-21T00:47:04;101640.66;;;8.38;82.34
23679;BME280;12016;51.668;6.874;2023-02-21T00:53:24;101587.69;;;7.89;82.09
23679;BME280;12016;51.668;6.874;2023-02-21T00:59:45;101792.50;;;9.34;82.63
23679;BME280;12016;51.668;6.874;2023-02-21T01:06:10;101468.53;;;7.41;82.16
23679;BME280;12016;51.668;6.874;2023-02-21T01:12:31;101692.50;;;8.87;82.46
23679;BME280;12016;51.668;6.874;2023-02-21T01:18:52;101805.69;;;9.30;82.49
23679;BME280;12016;51.668;6.874;2023-02-21T01:25:12;101781.16;;;9.37;82.43
23679;BME280;12016;51.668;6.874;2023-02-21T01:31:33;101777.25;;;9.19;83.07
23679;BME280;12016;51.668;6.874;2023-02-21T01:37:54;101771.25;;;9.32;82.53
23679;BME280;12016;51.668;6.874;2023-02-21T01:50:51;101740.72;;;9.13;82.71
23679;BME280;12016;51.668;6.874;2023-02-21T01:57:13;101802.75;;;9.26;83.24
23679;BME280;12016;51.668;6.874;2023-02-21T02:03:34;101566.25;;;7.84;82.85
23679;BME280;12016;51.668;6.874;2023-02-21T02:09:57;101553.06;;;7.98;82.90
23679;BME280;12016;51.668;6.874;2023-02-21T02:47:53;101763.25;;;9.22;83.46
23679;BME280;12016;51.668;6.874;2023-02-21T02:53:56;101724.44;;;8.94;83.65
23679;BME280;12016;51.668;6.874;2023-02-21T02:59:59;101540.44;;;7.93;83.98
23679;BME280;12016;51.668;6.874;2023-02-21T03:06:29;101741.28;;;9.10;84.09
23679;BME280;12016;51.668;6.874;2023-02-21T03:12:37;101736.88;;;9.24;83.73
23679;BME280;12016;51.668;6.874;2023-02-21T03:18:51;101743.38;;;9.18;83.39
23679;BME280;12016;51.668;6.874;2023-02-21T03:24:57;101764.84;;;9.23;83.57
23679;BME280;12016;51.668;6.874;2023-02-21T03:31:02;101751.47;;;9.13;83.49
23679;BME280;12016;51.668;6.874;2023-02-21T03:37:06;101746.66;;;9.10;83.82
23679;BME280;12016;51.668;6.874;2023-02-21T03:43:09;101752.06;;;9.05;83.69
23679;BME280;12016;51.668;6.874;2023-02-21T03:49:22;101756.59;;;9.09;83.88
23679;BME280;12016;51.668;6.874;2023-02-21T03:55:24;101743.97;;;9.10;83.65
23679;BME280;12016;51.668;6.874;2023-02-21T04:01:26;101662.81;;;8.64;83.74
23679;BME280;12016;51.668;6.874;2023-02-21T04:07:29;101618.97;;;8.19;83.81
23679;BME280;12016;51.668;6.874;2023-02-21T04:13:31;101542.97;;;7.69;83.71
23679;BME280;12016;51.668;6.874;2023-02-21T04:19:35;101291.84;;;6.05;84.21
23679;BME280;12016;51.668;6.874;2023-02-21T04:25:39;101743.34;;;8.79;84.60
23679;BME280;12016;51.668;6.874;2023-02-21T04:31:47;101167.53;;;5.17;84.04
23679;BME280;12016;51.668;6.874;2023-02-21T04:37:50;101754.81;;;8.89;84.33
23679;BME280;12016;51.668;6.874;2023-02-21T04:43:52;101472.34;;;7.14;84.01
23679;BME280;12016;51.668;6.874;2023-02-21T04:49:54;101641.47;;;8.28;84.69
23679;BME280;12016;51.668;6.874;2023-02-21T04:55:56;101745.69;;;8.90;84.30
23679;BME280;12016;51.668;6.874;2023-02-21T05:01:58;101529.31;;;7.61;84.00
23679;BME280;12016;51.668;6.874;2023-02-21T05:08:03;101737.66;;;8.85;84.85
23679;BME280;12016;51.668;6.874;2023-02-21T05:14:05;101736.84;;;8.85;84.28
23679;BME280;12016;51.668;6.874;2023-02-21T05:20:07;101568.16;;;7.73;84.69
23679;BME280;12016;51.668;6.874;2023-02-21T05:26:12;101537.41;;;7.50;84.81
23679;BME280;12016;51.668;6.874;2023-02-21T05:32:15;101737.69;;;8.80;85.21
23679;BME280;12016;51.668;6.874;2023-02-21T05:38:19;101750.81;;;8.87;84.80
23679;BME280;12016;51.668;6.874;2023-02-21T05:44:22;101227.38;;;5.46;85.28
23679;BME280;12016;51.668;6.874;2023-02-21T05:50:24;101602.72;;;7.90;84.98
23679;BME280;12016;51.668;6.874;2023-02-21T05:56:26;101495.91;;;7.17;85.39
23679;BME280;12016;51.668;6.874;2023-02-21T06:02:28;101495.16;;;7.12;85.73
23679;BME280;12016;51.668;6.874;2023-02-21T06:08:30;101606.75;;;7.82;86.00
23679;BME280;12016;51.668;6.874;2023-02-21T06:14:32;101374.66;;;5.75;87.71
23679;BME280;12016;51.668;6.874;2023-02-21T06:20:33;101663.56;;;8.00;87.77
23679;BME280;12016;51.668;6.874;2023-02-21T06:26:35;101690.41;;;8.05;87.83
23679;BME280;12016;51.668;6.874;2023-02-21T06:32:38;101724.41;;;8.30;88.05
23679;BME280;12016;51.668;6.874;2023-02-21T06:38:43;101118.53;;;4.40;87.82
23679;BME280;12016;51.668;6.874;2023-02-21T06:44:46;101563.44;;;7.09;88.01
23679;BME280;12016;51.668;6.874;2023-02-21T06:50:49;101672.66;;;8.09;87.72
23679;BME280;12016;51.668;6.874;2023-02-21T06:56:50;101651.22;;;8.04;87.15
23679;BME280;12016;51.668;6.874;2023-02-21T07:02:52;101740.22;;;8.51;86.46
23679;BME280;12016;51.668;6.874;2023-02-21T07:08:56;101608.41;;;7.58;87.08
23679;BME280;12016;51.668;6.874;2023-02-21T07:14:58;101605.72;;;7.53;86.44
23679;BME280;12016;51.668;6.874;2023-02-21T07:21:04;101474.81;;;6.80;86.98
23679;BME280;12016;51.668;6.874;2023-02-21T07:27:06;101508.00;;;7.05;87.04
23679;BME280;12016;51.668;6.874;2023-02-21T07:33:08;101551.91;;;7.19;87.32
23679;BME280;12016;51.668;6.874;2023-02-21T07:39:11;101748.19;;;8.72;86.85
23679;BME280;12016;51.668;6.874;2023-02-21T07:45:14;101653.63;;;8.10;86.82
23679;BME280;12016;51.668;6.874;2023-02-21T07:51:16;101489.78;;;7.07;86.68
23679;BME280;12016;51.668;6.874;2023-02-21T07:57:18;101701.88;;;8.20;87.37
23679;BME280;12016;51.668;6.874;2023-02-21T08:03:20;101587.03;;;7.23;87.41
23679;BME280;12016;51.668;6.874;2023-02-21T08:09:24;101686.69;;;7.70;88.58
23679;BME280;12016;51.668;6.874;2023-02-21T08:15:26;101768.94;;;8.51;87.79
23679;BME280;12016;51.668;6.874;2023-02-21T08:21:27;101509.34;;;7.02;86.95
23679;BME280;12016;51.668;6.874;2023-02-21T08:27:29;101686.09;;;8.09;88.12
23679;BME280;12016;51.668;6.874;2023-02-21T08:33:31;101627.97;;;7.59;88.43
23679;BME280;12016;51.668;6.874;2023-02-21T08:39:33;101467.31;;;6.62;88.23
23679;BME280;12016;51.668;6.874;2023-02-21T08:45:35;101750.16;;;8.46;88.60
23679;BME280;12016;51.668;6.874;2023-02-21T08:51:37;101674.56;;;7.93;88.59
23679;BME280;12016;51.668;6.874;2023-02-21T08:57:39;101759.00;;;8.56;87.69
23679;BME280;12016;51.668;6.874;2023-02-21T09:03:41;101593.16;;;7.28;88.10
23679;BME280;12016;51.668;6.874;2023-02-21T09:09:44;101347.16;;;5.80;88.05
23679;BME280;12016;51.668;6.874;2023-02-21T09:15:46;101763.31;;;8.52;88.00
23679;BME280;12016;51.668;6.874;2023-02-21T09:21:47;101677.25;;;7.98;88.20
23679;BME280;12016;51.668;6.874;2023-02-21T09:27:55;101755.00;;;8.39;88.48
23679;BME280;12016;51.668;6.874;2023-02-21T09:33:59;101677.56;;;7.71;88.45
23679;BME280;12016;51.668;6.874;2023-02-21T09:40:00;101577.91;;;7.24;88.47
23679;BME280;12016;51.668;6.874;2023-02-21T09:46:28;101745.06;;;8.44;87.73
23679;BME280;12016;51.668;6.874;2023-02-21T09:52:37;101759.00;;;8.56;87.78
23679;BME280;12016;51.668;6.874;2023-02-21T09:58:42;101744.47;;;8.68;87.63
23679;BME280;12016;51.668;6.874;2023-02-21T10:05:06;101745.31;;;8.48;87.49
23679;BME280;12016;51.668;6.874;2023-02-21T10:24:13;101750.38;;;8.65;87.04
23679;BME280;12016;51.668;6.874;2023-02-21T10:30:25;101750.31;;;8.75;86.51
23679;BME280;12016;51.668;6.874;2023-02-21T10:36:27;101738.09;;;8.43;86.65
23679;BME280;12016;51.668;6.874;2023-02-21T10:42:42;101597.31;;;7.95;86.30
23679;BME280;12016;51.668;6.874;2023-02-21T10:48:47;101764.16;;;9.02;85.33
23679;BME280;12016;51.668;6.874;2023-02-21T10:55:05;101772.56;;;8.90;85.07
23679;BME280;12016;51.668;6.874;2023-02-21T11:07:31;101776.31;;;8.84;85.09
23679;BME280;12016;51.668;6.874;2023-02-21T11:13:33;101755.34;;;8.91;85.33
23679;BME280;12016;51.668;6.874;2023-02-21T11:20:01;101743.13;;;9.19;83.90
23679;BME280;12016;51.668;6.874;2023-02-21T11:26:10;101738.19;;;9.31;84.44
23679;BME280;12016;51.668;6.874;2023-02-21T11:32:22;101738.16;;;9.37;83.67
23679;BME280;12016;51.668;6.874;2023-02-21T11:45:23;101490.00;;;8.00;82.95
23679;BME280;12016;51.668;6.874;2023-02-21T11:51:56;101659.50;;;9.21;81.95
23679;BME280;12016;51.668;6.874;2023-02-21T12:04:17;101720.06;;;9.81;81.82
23679;BME280;12016;51.668;6.874;2023-02-21T12:23:25;101686.19;;;9.46;82.19
23679;BME280;12016;51.668;6.874;2023-02-21T12:42:32;101422.13;;;8.44;81.08
23679;BME280;12016;51.668;6.874;2023-02-21T12:49:38;101610.03;;;9.80;80.27
23679;BME280;12016;51.668;6.874;2023-02-21T12:55:21;101565.94;;;9.52;79.29
23679;BME280;12016;51.668;6.874;2023-02-21T13:01:36;101660.44;;;10.46;79.56
23679;BME280;12016;51.668;6.874;2023-02-21T13:07:53;101657.28;;;10.38;79.20
23679;BME280;12016;51.668;6.874;2023-02-21T13:13:57;101491.06;;;9.35;79.53
23679;BME280;12016;51.668;6.874;2023-02-21T13:32:49;101596.50;;;10.09;78.50
23679;BME280;12016;51.668;6.874;2023-02-21T13:39:19;101615.50;;;10.41;77.81
23679;BME280;12016;51.668;6.874;2023-02-21T13:45:24;101532.72;;;10.09;78.13
23679;BME280;12016;51.668;6.874;2023-02-21T13:51:49;101618.38;;;10.50;77.27
23679;BME280;12016;51.668;6.874;2023-02-21T14:03:57;101129.97;;;7.50;77.54
23679;BME280;12016;51.668;6.874;2023-02-21T14:09:59;101608.97;;;10.47;77.85
23679;BME280;12016;51.668;6.874;2023-02-21T14:22:20;101605.44;;;10.28;77.62
23679;BME280;12016;51.668;6.874;2023-02-21T14:34:58;101304.69;;;8.54;77.68
23679;BME280;12016;51.668;6.874;2023-02-21T15:00:41;101587.34;;;10.33;77.51
23679;BME280;12016;51.668;6.874;2023-02-21T15:07:23;101580.56;;;10.36;77.10
23679;BME280;12016;51.668;6.874;2023-02-21T15:13:30;101577.94;;;10.31;77.69
23679;BME280;12016;51.668;6.874;2023-02-21T15:19:34;101572.13;;;10.24;77.75
23679;BME280;12016;51.668;6.874;2023-02-21T15:25:36;101571.88;;;10.20;77.91
23679;BME280;12016;51.668;6.874;2023-02-21T15:31:48;101570.09;;;10.34;78.02
23679;BME280;12016;51.668;6.874;2023-02-21T15:37:52;101500.16;;;9.87;77.77
23679;BME280;12016;51.668;6.874;2023-02-21T15:50:09;101562.81;;;10.35;77.68
23679;BME280;12016;51.668;6.874;2023-02-21T15:56:19;101563.63;;;10.35;77.62
23679;BME280;12016;51.668;6.874;2023-02-21T16:02:22;101562.94;;;10.44;77.36
23679;BME280;12016;51.668;6.874;2023-02-21T16:08:25;101280.44;;;8.83;77.39
23679;BME280;12016;51.668;6.874;2023-02-21T16:14:43;101557.50;;;10.49;77.84
23679;BME280;12016;51.668;6.874;2023-02-21T16:20:58;101548.25;;;10.36;77.68
23679;BME280;12016;51.668;6.874;2023-02-21T16:27:13;101541.91;;;10.64;77.18
23679;BME280;12016;51.668;6.874;2023-02-21T16:33:15;101543.00;;;10.45;76.81
23679;BME280;12016;51.668;6.874;2023-02-21T16:39:17;101545.41;;;10.27;77.25
23679;BME280;12016;51.668;6.874;2023-02-21T16:45:19;101450.16;;;9.62;77.39
23679;BME280;12016;51.668;6.874;2023-02-21T16:51:21;101546.59;;;10.16;77.16
23679;BME280;12016;51.668;6.874;2023-02-21T16:57:23;101364.34;;;8.99;77.65
23679;BME280;12016;51.668;6.874;2023-02-21T17:03:25;101536.78;;;10.07;77.44
23679;BME280;12016;51.668;6.874;2023-02-21T17:09:29;101520.59;;;9.88;77.47
23679;BME280;12016;51.668;6.874;2023-02-21T17:15:34;101407.06;;;9.24;77.62
23679;BME280;12016;51.668;6.874;2023-02-21T17:21:38;101543.75;;;10.08;78.19
23679;BME280;12016;51.668;6.874;2023-02-21T17:27:40;101551.44;;;10.19;77.91
23679;BME280;12016;51.668;6.874;2023-02-21T17:33:41;101299.75;;;8.38;77.52
23679;BME280;12016;51.668;6.874;2023-02-21T17:39:43;101506.13;;;9.84;77.75
23679;BME280;12016;51.668;6.874;2023-02-21T17:45:45;101517.97;;;9.83;78.23
23679;BME280;12016;51.668;6.874;2023-02-21T17:51:47;101479.53;;;9.58;78.54
23679;BME280;12016;51.668;6.874;2023-02-21T17:57:50;101473.41;;;9.29;78.76
23679;BME280;12016;51.668;6.874;2023-02-21T18:03:52;101561.34;;;9.76;78.93
23679;BME280;12016;51.668;6.874;2023-02-21T18:09:54;101563.31;;;9.71;79.06
23679;BME280;12016;51.668;6.874;2023-02-21T18:15:56;101352.91;;;8.36;79.12
23679;BME280;12016;51.668;6.874;2023-02-21T18:21:58;101014.50;;;6.16;79.06
23679;BME280;12016;51.668;6.874;2023-02-21T18:28:00;101550.78;;;9.85;78.98
23679;BME280;12016;51.668;6.874;2023-02-21T18:34:03;101553.34;;;9.95;78.94
23679;BME280;12016;51.668;6.874;2023-02-21T18:40:06;101345.91;;;8.69;78.84
23679;BME280;12016;51.668;6.874;2023-02-21T18:46:11;101364.91;;;8.72;78.91
23679;BME280;12016;51.668;6.874;2023-02-21T18:52:14;101542.50;;;10.00;78.90
23679;BME280;12016;51.668;6.874;2023-02-21T18:58:16;101541.41;;;10.01;78.47
23679;BME280;12016;51.668;6.874;2023-02-21T19:04:18;101314.25;;;8.66;78.52
23679;BME280;12016;51.668;6.874;2023-02-21T19:10:22;101358.09;;;9.09;78.54
23679;BME280;12016;51.668;6.874;2023-02-21T19:16:25;101525.94;;;10.12;78.34
23679;BME280;12016;51.668;6.874;2023-02-21T19:22:27;101524.78;;;9.99;78.61
23679;BME280;12016;51.668;6.874;2023-02-21T19:28:29;101518.78;;;9.83;78.74
23679;BME280;12016;51.668;6.874;2023-02-21T19:34:31;101345.66;;;8.65;78.94
23679;BME280;12016;51.668;6.874;2023-02-21T19:40:34;101524.44;;;9.82;78.87
23679;BME280;12016;51.668;6.874;2023-02-21T19:46:36;101533.22;;;9.68;79.10
23679;BME280;12016;51.668;6.874;2023-02-21T19:52:38;101463.78;;;9.23;79.28
23679;BME280;12016;51.668;6.874;2023-02-21T19:58:41;101330.94;;;8.34;79.44
23679;BME280;12016;51.668;6.874;2023-02-21T20:04:45;101521.28;;;9.51;79.85
23679;BME280;12016;51.668;6.874;2023-02-21T20:10:48;101519.16;;;9.48;79.60
23679;BME280;12016;51.668;6.874;2023-02-21T20:16:50;101455.78;;;9.42;79.19
23679;BME280;12016;51.668;6.874;2023-02-21T20:22:55;101441.78;;;9.21;78.48
23679;BME280;12016;51.668;6.874;2023-02-21T20:28:58;101504.66;;;9.73;79.20
23679;BME280;12016;51.668;6.874;2023-02-21T20:35:00;101304.34;;;8.61;79.16
23679;BME280;12016;51.668;6.874;2023-02-21T20:41:06;101310.31;;;8.82;78.66
23679;BME280;12016;51.668;6.874;2023-02-21T20:47:09;101127.31;;;7.50;78.20
23679;BME280;12016;51.668;6.874;2023-02-21T20:53:11;100977.63;;;6.81;78.16
23679;BME280;12016;51.668;6.874;2023-02-21T20:59:16;101321.84;;;9.06;78.78
23679;BME280;12016;51.668;6.874;2023-02-21T21:05:18;101134.84;;;8.01;78.54
23679;BME280;12016;51.668;6.874;2023-02-21T21:11:21;101202.34;;;8.37;78.25
23679;BME280;12016;51.668;6.874;2023-02-21T21:17:22;101465.22;;;10.24;78.45
23679;BME280;12016;51.668;6.874;2023-02-21T21:23:25;101462.81;;;10.23;78.41
23679;BME280;12016;51.668;6.874;2023-02-21T21:29:26;101169.84;;;8.39;78.41
23679;BME280;12016;51.668;6.874;2023-02-21T21:35:28;101478.75;;;10.19;78.13
23679;BME280;12016;51.668;6.874;2023-02-21T21:41:30;101457.47;;;10.18;78.59
23679;BME280;12016;51.668;6.874;2023-02-21T21:47:34;101406.56;;;9.84;78.70
23679;BME280;12016;51.668;6.874;2023-02-21T21:53:37;101204.19;;;8.60;78.65
23679;BME280;12016;51.668;6.874;2023-02-21T21:59:41;100885.34;;;6.44;78.56
23679;BME280;12016;51.668;6.874;2023-02-21T22:05:43;101307.50;;;9.11;78.79
23679;BME280;12016;51.668;6.874;2023-02-21T22:11:47;101349.47;;;9.49;79.16
23679;BME280;12016;51.668;6.874;2023-02-21T22:17:50;101427.38;;;9.97;79.14
23679;BME280;12016;51.668;6.874;2023-02-21T22:23:52;101244.00;;;8.77;78.81
23679;BME280;12016;51.668;6.874;2023-02-21T22:29:59;101213.31;;;8.41;79.53
23679;BME280;12016;51.668;6.874;2023-02-21T22:36:00;101219.25;;;8.38;79.68
23679;BME280;12016;51.668;6.874;2023-02-21T22:42:05;101168.53;;;8.31;79.32
23679;BME280;12016;51.668;6.874;2023-02-21T22:48:09;101180.22;;;8.45;79.05
23679;BME280;12016;51.668;6.874;2023-02-21T22:54:11;101393.25;;;9.92;79.38
23679;BME280;12016;51.668;6.874;2023-02-21T23:00:16;101317.00;;;9.46;78.92
23679;BME280;12016;51.668;6.874;2023-02-21T23:06:22;101385.75;;;9.89;79.56
23679;BME280;12016;51.668;6.874;2023-02-21T23:12:24;101167.59;;;8.46;79.03
23679;BME280;12016;51.668;6.874;2023-02-21T23:18:26;101188.97;;;8.56;79.74
23679;BME280;12016;51.668;6.874;2023-02-21T23:24:28;101320.19;;;9.48;79.27
23679;BME280;12016;51.668;6.874;2023-02-21T23:30:32;101167.03;;;8.25;79.24
23679;BME280;12016;51.668;6.874;2023-02-21T23:36:41;101123.06;;;8.21;78.64
23679;BME280;12016;51.668;6.874;2023-02-21T23:42:46;101139.50;;;8.14;78.41
23679;BME280;12016;51.668;6.874;2023-02-21T23:48:50;101158.88;;;8.35;78.72
23679;BME280;12016;51.668;6.874;2023-02-21T23:54:54;101128.78;;;8.14;78.04
